Aérodrome :
LOGIN :

S'inscrire | Disclaimer

   EN    FR    IT 

 










Légende :    VFR   VFR Marginal   IFR   IFR Intensif   IFR Très Intensif
Visi : 
Plafond : 
>= 8 km
>= 3000ft
5 à 8 km
1000 à 3000 ft
1500m à 5 km
500 à 1000 ft
800 à 1500m
200 à 500 ft
< 800m
< 200 ft
Symboles :   Orages  Brouillard  Fortes neiges  Fortes précipitations  Vent > 20 kt
SIGMETs :   Divers  Orages  Givrage  Turbulence  Onde Orograph.  Cendres Volcan.






- Altitude de l'aérodrome : 527 ft
- Code IATA : DBV


LDDU - Dubrovnik

DERNIER METAR :
  • 311700Z 01008G18KT 290V100 9999 FEW033 SCT075 15/07 Q1014 NOSIG

METARs EXPIRÉS :
  • 311630Z 34008KT 290V050 9999 SCT033 SCT056 15/08 Q1014 NOSIG
  • 311600Z 30010KT 9999 FEW030 BKN072 16/11 Q1014 NOSIG
  • 311530Z 30011KT 270V330 9999 FEW023 SCT033 17/10 Q1014 NOSIG
  • 311500Z 25008KT 210V270 9999 FEW020 SCT033 17/11 Q1014 NOSIG
  • 311430Z 22008KT 170V270 9999 FEW026 SCT036 17/11 Q1014 BECMG 28008KT

TAF TAF LDDU
Valide du 31 à 12h jusqu'au 01 à 12h UTC


311125Z 3112/0112 04008KT 9999 FEW025 BKN050 TX18/0111Z TN13/0104Z
BECMG 3112/3114 28009KT
PROB30
TEMPO 3112/3116 TS FEW020CB
BECMG 3117/3119 08006KT
TEMPO 3121/0106 02010KT
BECMG 0108/0110 29010KT



MET'MAP, la Météo Aéronautique d'un coup d'oeil ! - Copyright ORBIFLY Décembre 2007 - Disclaimer

ORBIFLY MET'MAP TEAM :

Programmation & Développement : Alexandra Zaïnal
Sur une idée originale de : Baudouin d'Aumeries
Assistance à la programmation : Marc-Olivier Méhu
Soutien technique & logistique : Manuel Goepfert

Contact : metmap@orbifly.com




SOURCES & CREDITS :

   NOAA